Thunder radar more information blitzortung!


Radar de pluja more information rain snow radar


Visita la nostra xarxa de llocs de meteo:

Template documentation
and downloads

And another site



No particular awareness of the weather is required.    There are no Weather-warnings

Pagina Historial Weather Underground text

Diari Resum Juliol 16, 2017 Unitats:  Tant    Imperial   Mètric
« Previous Dia
SegĂźent Dia »
Diari Setmana Mensual Anual Personalitzada
  Maxima: Minima: Media:
Temperatura: 91 °F /  32.8 °C 71.4 °F /  21.9 °C 78.4 °F /  25.8 °C
Punt de rosada: 70.3 °F /  21.3 °C 59.9 °F /  15.5 °C 62.2 °F /  16.8 °C
Humitat: 72 % 46 % 59 %
Wind Speed: 7 mph /  11.3 km/h - 2.7 mph /  4.4 km/h
RĂ fegues de vent: 11 mph /  17.7 km/h - -
Vent:- - SSW
Pression baro: 30.1 in /  1017.8 hPa 30 in /  1015.8 hPa -
Precipitacions: 0 in /  0.0 mm    
Historical Graphs
 
 
Dades de taula per Juliol 16, 2017
Temps Temperatura Punt de rosada Pression baro Vent Wind Speed RĂ fegues de vent Humitat Rainfall Rate (Hourly)
00:00 75.6 °F /  24.2 °C 65.1 °F /  18.4 °C 30 in /  1016.8 hPa SW 2.9 mph /  4.7 km/h 2.9 mph /  4.7 km/h 70 % 0 in /  0.0 mm
00:05 75.4 °F /  24.1 °C 64.9 °F /  18.3 °C 30 in /  1016.8 hPa SW 3.5 mph /  5.6 km/h 3.5 mph /  5.6 km/h 70 % 0 in /  0.0 mm
11:00 91 °F /  32.8 °C 70.3 °F /  21.3 °C 30.1 in /  1017.8 hPa South 6 mph /  9.7 km/h 11 mph /  17.7 km/h 51 % 0 in /  0.0 mm
11:10 90.5 °F /  32.5 °C 69.3 °F /  20.7 °C 30.1 in /  1017.8 hPa SSW 2 mph /  3.2 km/h 4 mph /  6.4 km/h 50 % 0 in /  0.0 mm
11:20 91 °F /  32.8 °C 69.3 °F /  20.7 °C 30.1 in /  1017.8 hPa SSW 3 mph /  4.8 km/h 6 mph /  9.7 km/h 49 % 0 in /  0.0 mm
11:30 90.1 °F /  32.3 °C 67.8 °F /  19.9 °C 30 in /  1016.8 hPa SW 3 mph /  4.8 km/h 4 mph /  6.4 km/h 48 % 0 in /  0.0 mm
11:40 90.3 °F /  32.4 °C 68 °F /  20.0 °C 30.1 in /  1017.8 hPa SW 3 mph /  4.8 km/h 8 mph /  12.9 km/h 48 % 0 in /  0.0 mm
11:50 91 °F /  32.8 °C 68.5 °F /  20.3 °C 30.1 in /  1017.8 hPa SW 3 mph /  4.8 km/h 6 mph /  9.7 km/h 48 % 0 in /  0.0 mm
12:00 91 °F /  32.8 °C 68.5 °F /  20.3 °C 30.1 in /  1017.8 hPa SW 3 mph /  4.8 km/h 6 mph /  9.7 km/h 48 % 0 in /  0.0 mm
12:10 90.5 °F /  32.5 °C 67.5 °F /  19.7 °C 30 in /  1016.8 hPa SW 6 mph /  9.7 km/h 8 mph /  12.9 km/h 47 % 0 in /  0.0 mm
12:20 89.8 °F /  32.1 °C 66.9 °F /  19.4 °C 30 in /  1016.8 hPa SW 3 mph /  4.8 km/h 10 mph /  16.1 km/h 47 % 0 in /  0.0 mm
12:30 90.5 °F /  32.5 °C 67.5 °F /  19.7 °C 30 in /  1016.8 hPa SW 2 mph /  3.2 km/h 6 mph /  9.7 km/h 47 % 0 in /  0.0 mm
12:40 89.8 °F /  32.1 °C 66.2 °F /  19.0 °C 30 in /  1016.8 hPa WSW 3 mph /  4.8 km/h 3 mph /  4.8 km/h 46 % 0 in /  0.0 mm
12:50 88.7 °F /  31.5 °C 65.8 °F /  18.8 °C 30 in /  1016.8 hPa SW 5 mph /  8.0 km/h 8 mph /  12.9 km/h 47 % 0 in /  0.0 mm
13:00 88.2 °F /  31.2 °C 65.5 °F /  18.6 °C 30 in /  1015.8 hPa SSW 2 mph /  3.2 km/h 8 mph /  12.9 km/h 47 % 0 in /  0.0 mm
13:10 87.8 °F /  31.0 °C 64.4 °F /  18.0 °C 30 in /  1015.8 hPa SW 3 mph /  4.8 km/h 7 mph /  11.3 km/h 46 % 0 in /  0.0 mm
13:20 87.4 °F /  30.8 °C 64.8 °F /  18.2 °C 30 in /  1015.8 hPa SW 3 mph /  4.8 km/h 5 mph /  8.0 km/h 47 % 0 in /  0.0 mm
13:30 86.5 °F /  30.3 °C 63.9 °F /  17.7 °C 30 in /  1015.8 hPa SW 5 mph /  8.0 km/h 8 mph /  12.9 km/h 47 % 0 in /  0.0 mm
13:40 86.9 °F /  30.5 °C 64.2 °F /  17.9 °C 30 in /  1015.8 hPa WSW 3 mph /  4.8 km/h 4 mph /  6.4 km/h 47 % 0 in /  0.0 mm
13:50 86.4 °F /  30.2 °C 63.1 °F /  17.3 °C 30 in /  1015.8 hPa SW 2 mph /  3.2 km/h 4 mph /  6.4 km/h 46 % 0 in /  0.0 mm
14:00 86 °F /  30.0 °C 63.3 °F /  17.4 °C 30 in /  1015.8 hPa SSW 2 mph /  3.2 km/h 3 mph /  4.8 km/h 47 % 0 in /  0.0 mm
14:10 85.5 °F /  29.7 °C 63 °F /  17.2 °C 30 in /  1015.8 hPa SE 2 mph /  3.2 km/h 3 mph /  4.8 km/h 47 % 0 in /  0.0 mm
14:20 83.8 °F /  28.8 °C 62.6 °F /  17.0 °C 30 in /  1015.8 hPa SE 3 mph /  4.8 km/h 4 mph /  6.4 km/h 49 % 0 in /  0.0 mm
14:30 83.1 °F /  28.4 °C 62.1 °F /  16.7 °C 30 in /  1015.8 hPa SSE 2 mph /  3.2 km/h 4 mph /  6.4 km/h 49 % 0 in /  0.0 mm
14:40 81.9 °F /  27.7 °C 60.8 °F /  16.0 °C 30 in /  1015.8 hPa East 7 mph /  11.3 km/h 8 mph /  12.9 km/h 49 % 0 in /  0.0 mm
14:50 81 °F /  27.2 °C 60.6 °F /  15.9 °C 30 in /  1015.8 hPa East 5 mph /  8.0 km/h 7 mph /  11.3 km/h 50 % 0 in /  0.0 mm
15:00 80.8 °F /  27.1 °C 60.4 °F /  15.8 °C 30 in /  1015.8 hPa ESE 5 mph /  8.0 km/h 8 mph /  12.9 km/h 50 % 0 in /  0.0 mm
15:10 80.4 °F /  26.9 °C 60.6 °F /  15.9 °C 30 in /  1016.8 hPa ESE 6 mph /  9.7 km/h 6 mph /  9.7 km/h 51 % 0 in /  0.0 mm
15:20 80.4 °F /  26.9 °C 61.2 °F /  16.2 °C 30 in /  1016.8 hPa ESE 3 mph /  4.8 km/h 6 mph /  9.7 km/h 52 % 0 in /  0.0 mm
15:30 79.9 °F /  26.6 °C 60.6 °F /  15.9 °C 30 in /  1016.8 hPa ESE 6 mph /  9.7 km/h 8 mph /  12.9 km/h 52 % 0 in /  0.0 mm
15:40 79.3 °F /  26.3 °C 60.6 °F /  15.9 °C 30 in /  1016.8 hPa ESE 5 mph /  8.0 km/h 5 mph /  8.0 km/h 53 % 0 in /  0.0 mm
15:45 79 °F /  26.1 °C 60.4 °F /  15.8 °C 30 in /  1016.8 hPa ESE 3 mph /  4.8 km/h 4 mph /  6.4 km/h 53 % 0 in /  0.0 mm
19:20 73.4 °F /  23.0 °C 61.3 °F /  16.3 °C 30 in /  1016.8 hPa WSW 1 mph /  1.6 km/h 3 mph /  4.8 km/h 66 % 0 in /  0.0 mm
19:30 73.4 °F /  23.0 °C 61.3 °F /  16.3 °C 30.1 in /  1017.8 hPa SW 2 mph /  3.2 km/h 3 mph /  4.8 km/h 66 % 0 in /  0.0 mm
19:40 73.2 °F /  22.9 °C 61.2 °F /  16.2 °C 30.1 in /  1017.8 hPa WSW 1 mph /  1.6 km/h 2 mph /  3.2 km/h 66 % 0 in /  0.0 mm
19:50 73 °F /  22.8 °C 61.3 °F /  16.3 °C 30.1 in /  1017.8 hPa WSW 2 mph /  3.2 km/h 2 mph /  3.2 km/h 67 % 0 in /  0.0 mm
20:00 72.9 °F /  22.7 °C 61.3 °F /  16.3 °C 30.1 in /  1017.8 hPa SW 2 mph /  3.2 km/h 3 mph /  4.8 km/h 67 % 0 in /  0.0 mm
20:10 72.7 °F /  22.6 °C 61.5 °F /  16.4 °C 30.1 in /  1017.8 hPa Calm   2 mph /  3.2 km/h 68 % 0 in /  0.0 mm
20:20 72.7 °F /  22.6 °C 61.5 °F /  16.4 °C 30.1 in /  1017.8 hPa Calm   1 mph /  1.6 km/h 68 % 0 in /  0.0 mm
20:30 72.7 °F /  22.6 °C 61.9 °F /  16.6 °C 30.1 in /  1017.8 hPa Calm   1 mph /  1.6 km/h 69 % 0 in /  0.0 mm
20:40 72.7 °F /  22.6 °C 61.9 °F /  16.6 °C 30.1 in /  1017.8 hPa WNW 1 mph /  1.6 km/h 2 mph /  3.2 km/h 69 % 0 in /  0.0 mm
20:49 79 °F /  26.1 °C 60.4 °F /  15.8 °C 30 in /  1016.8 hPa East 4.6 mph /  7.4 km/h 4.6 mph /  7.4 km/h 53 % 0 in /  0.0 mm
20:50 72.1 °F /  22.3 °C 61.3 °F /  16.3 °C 30.1 in /  1017.8 hPa Calm   1 mph /  1.6 km/h 69 % 0 in /  0.0 mm
20:54 79 °F /  26.1 °C 60.4 °F /  15.8 °C 30 in /  1016.8 hPa SE 5.6 mph /  9.0 km/h 5.6 mph /  9.0 km/h 53 % 0 in /  0.0 mm
20:59 78.8 °F /  26.0 °C 60.3 °F /  15.7 °C 30 in /  1016.8 hPa ESE 6.4 mph /  10.3 km/h 6.4 mph /  10.3 km/h 53 % 0 in /  0.0 mm
21:00 72.1 °F /  22.3 °C 61.9 °F /  16.6 °C 30.1 in /  1017.8 hPa Calm   2 mph /  3.2 km/h 70 % 0 in /  0.0 mm
21:04 78.4 °F /  25.8 °C 59.9 °F /  15.5 °C 30 in /  1016.8 hPa ESE 5.8 mph /  9.3 km/h 5.8 mph /  9.3 km/h 53 % 0 in /  0.0 mm
21:09 78.3 °F /  25.7 °C 60.3 °F /  15.7 °C 30.1 in /  1017.8 hPa SE 4.6 mph /  7.4 km/h 4.7 mph /  7.6 km/h 54 % 0 in /  0.0 mm
21:10 72.3 °F /  22.4 °C 61.5 °F /  16.4 °C 30.1 in /  1017.8 hPa WSW 1 mph /  1.6 km/h 2 mph /  3.2 km/h 69 % 0 in /  0.0 mm
21:14 78.1 °F /  25.6 °C 60.1 °F /  15.6 °C 30.1 in /  1017.8 hPa ESE 4.6 mph /  7.4 km/h 4.6 mph /  7.4 km/h 54 % 0 in /  0.0 mm
21:20 78.1 °F /  25.6 °C 60.1 °F /  15.6 °C 30.1 in /  1017.8 hPa East 3 mph /  4.8 km/h 6 mph /  9.7 km/h 54 % 0 in /  0.0 mm
21:25 77.9 °F /  25.5 °C 59.9 °F /  15.5 °C 30.1 in /  1017.8 hPa East 4.6 mph /  7.4 km/h 4.6 mph /  7.4 km/h 54 % 0 in /  0.0 mm
21:30 77.9 °F /  25.5 °C 59.9 °F /  15.5 °C 30.1 in /  1017.8 hPa East 4.6 mph /  7.4 km/h 4.6 mph /  7.4 km/h 54 % 0 in /  0.0 mm
21:36 77.7 °F /  25.4 °C 60.3 °F /  15.7 °C 30.1 in /  1017.8 hPa ENE 3.5 mph /  5.6 km/h 3.5 mph /  5.6 km/h 55 % 0 in /  0.0 mm
21:40 72.3 °F /  22.4 °C 62.1 °F /  16.7 °C 30.1 in /  1017.8 hPa SW 1 mph /  1.6 km/h 1 mph /  1.6 km/h 70 % 0 in /  0.0 mm
21:41 77.5 °F /  25.3 °C 60.1 °F /  15.6 °C 30.1 in /  1017.8 hPa SSE 2.3 mph /  3.7 km/h 2.3 mph /  3.7 km/h 55 % 0 in /  0.0 mm
21:46 77.5 °F /  25.3 °C 60.1 °F /  15.6 °C 30.1 in /  1017.8 hPa West 1.4 mph /  2.3 km/h   55 % 0 in /  0.0 mm
21:50 72.3 °F /  22.4 °C 62.1 °F /  16.7 °C 30.1 in /  1017.8 hPa SW 2 mph /  3.2 km/h 2 mph /  3.2 km/h 70 % 0 in /  0.0 mm
21:51 77.4 °F /  25.2 °C 59.9 °F /  15.5 °C 30.1 in /  1017.8 hPa Calm   0.9 mph /  1.4 km/h 55 % 0 in /  0.0 mm
21:56 77.4 °F /  25.2 °C 59.9 °F /  15.5 °C 30.1 in /  1017.8 hPa SW 1.4 mph /  2.3 km/h 1.6 mph /  2.6 km/h 55 % 0 in /  0.0 mm
22:00 72.3 °F /  22.4 °C 62.1 °F /  16.7 °C 30.1 in /  1017.8 hPa SW 2 mph /  3.2 km/h 3 mph /  4.8 km/h 70 % 0 in /  0.0 mm
22:01 77.4 °F /  25.2 °C 59.9 °F /  15.5 °C 30.1 in /  1017.8 hPa WSW 2.4 mph /  3.9 km/h 2.4 mph /  3.9 km/h 55 % 0 in /  0.0 mm
22:06 77.2 °F /  25.1 °C 60.3 °F /  15.7 °C 30.1 in /  1017.8 hPa WSW 2.3 mph /  3.7 km/h 2.3 mph /  3.7 km/h 56 % 0 in /  0.0 mm
22:10 72.5 °F /  22.5 °C 62.2 °F /  16.8 °C 30 in /  1016.8 hPa SW 1 mph /  1.6 km/h 3 mph /  4.8 km/h 70 % 0 in /  0.0 mm
22:11 77 °F /  25.0 °C 60.6 °F /  15.9 °C 30.1 in /  1017.8 hPa SW 2.3 mph /  3.7 km/h 2.4 mph /  3.9 km/h 57 % 0 in /  0.0 mm
22:16 76.8 °F /  24.9 °C 61 °F /  16.1 °C 30.1 in /  1017.8 hPa WSW 3.8 mph /  6.1 km/h 3.8 mph /  6.1 km/h 58 % 0 in /  0.0 mm
22:20 72.7 °F /  22.6 °C 62.2 °F /  16.8 °C 30 in /  1016.8 hPa SW 1 mph /  1.6 km/h 2 mph /  3.2 km/h 70 % 0 in /  0.0 mm
22:21 76.6 °F /  24.8 °C 61.2 °F /  16.2 °C 30.1 in /  1017.8 hPa West 4.6 mph /  7.4 km/h 4.6 mph /  7.4 km/h 59 % 0 in /  0.0 mm
22:26 76.5 °F /  24.7 °C 61.2 °F /  16.2 °C 30.1 in /  1017.8 hPa West 3.5 mph /  5.6 km/h 3.5 mph /  5.6 km/h 59 % 0 in /  0.0 mm
22:30 72.7 °F /  22.6 °C 62.2 °F /  16.8 °C 30 in /  1016.8 hPa SW 1 mph /  1.6 km/h 2 mph /  3.2 km/h 70 % 0 in /  0.0 mm
22:31 76.3 °F /  24.6 °C 61 °F /  16.1 °C 30.1 in /  1017.8 hPa SW 3.5 mph /  5.6 km/h 3.5 mph /  5.6 km/h 59 % 0 in /  0.0 mm
22:36 76.1 °F /  24.5 °C 61.2 °F /  16.2 °C 30.1 in /  1017.8 hPa WSW 3.5 mph /  5.6 km/h 3.5 mph /  5.6 km/h 60 % 0 in /  0.0 mm
22:40 72.7 °F /  22.6 °C 62.2 °F /  16.8 °C 30 in /  1016.8 hPa SW 2 mph /  3.2 km/h 2 mph /  3.2 km/h 70 % 0 in /  0.0 mm
22:41 75.9 °F /  24.4 °C 61 °F /  16.1 °C 30.1 in /  1017.8 hPa SSE 3.5 mph /  5.6 km/h 3.5 mph /  5.6 km/h 60 % 0 in /  0.0 mm
22:47 75.7 °F /  24.3 °C 61 °F /  16.1 °C 30.1 in /  1017.8 hPa SW 3.5 mph /  5.6 km/h 3.5 mph /  5.6 km/h 60 % 0 in /  0.0 mm
22:50 72.7 °F /  22.6 °C 62.2 °F /  16.8 °C 30 in /  1016.8 hPa WSW 1 mph /  1.6 km/h 2 mph /  3.2 km/h 70 % 0 in /  0.0 mm
22:52 75.6 °F /  24.2 °C 61.2 °F /  16.2 °C 30.1 in /  1017.8 hPa SSW 3.1 mph /  5.0 km/h 3.1 mph /  5.0 km/h 61 % 0 in /  0.0 mm
22:57 75.6 °F /  24.2 °C 61.2 °F /  16.2 °C 30.1 in /  1017.8 hPa SW 4.6 mph /  7.4 km/h 4.6 mph /  7.4 km/h 61 % 0 in /  0.0 mm
23:00 72.1 °F /  22.3 °C 61.9 °F /  16.6 °C 30 in /  1016.8 hPa WSW 1 mph /  1.6 km/h 2 mph /  3.2 km/h 70 % 0 in /  0.0 mm
23:02 75.4 °F /  24.1 °C 61 °F /  16.1 °C 30.1 in /  1017.8 hPa WSW 2.6 mph /  4.2 km/h 2.6 mph /  4.2 km/h 61 % 0 in /  0.0 mm
23:07 75.2 °F /  24.0 °C 60.8 °F /  16.0 °C 30.1 in /  1017.8 hPa SW 2.9 mph /  4.7 km/h 2.9 mph /  4.7 km/h 61 % 0 in /  0.0 mm
23:10 72 °F /  22.2 °C 61.5 °F /  16.4 °C 30 in /  1016.8 hPa SW 2 mph /  3.2 km/h 2 mph /  3.2 km/h 70 % 0 in /  0.0 mm
23:12 75 °F /  23.9 °C 61.2 °F /  16.2 °C 30.1 in /  1017.8 hPa SW 3.5 mph /  5.6 km/h 3.5 mph /  5.6 km/h 62 % 0 in /  0.0 mm
23:17 75 °F /  23.9 °C 61.5 °F /  16.4 °C 30.1 in /  1017.8 hPa SW 3.5 mph /  5.6 km/h 3.5 mph /  5.6 km/h 63 % 0 in /  0.0 mm
23:20 71.8 °F /  22.1 °C 61.9 °F /  16.6 °C 30 in /  1016.8 hPa Calm   2 mph /  3.2 km/h 71 % 0 in /  0.0 mm
23:22 74.8 °F /  23.8 °C 61.3 °F /  16.3 °C 30 in /  1016.8 hPa WSW 2.3 mph /  3.7 km/h 2.3 mph /  3.7 km/h 63 % 0 in /  0.0 mm
23:27 74.7 °F /  23.7 °C 61.2 °F /  16.2 °C 30 in /  1016.8 hPa SW 2.6 mph /  4.2 km/h 2.6 mph /  4.2 km/h 63 % 0 in /  0.0 mm
23:30 71.6 °F /  22.0 °C 61.7 °F /  16.5 °C 30 in /  1016.8 hPa Calm   1 mph /  1.6 km/h 71 % 0 in /  0.0 mm
23:32 74.5 °F /  23.6 °C 61.2 °F /  16.2 °C 30 in /  1016.8 hPa SW 2.3 mph /  3.7 km/h 2.4 mph /  3.9 km/h 63 % 0 in /  0.0 mm
23:37 74.5 °F /  23.6 °C 61.2 °F /  16.2 °C 30 in /  1016.8 hPa SW 2.3 mph /  3.7 km/h 2.3 mph /  3.7 km/h 63 % 0 in /  0.0 mm
23:40 71.6 °F /  22.0 °C 61.7 °F /  16.5 °C 30 in /  1016.8 hPa Calm   2 mph /  3.2 km/h 71 % 0 in /  0.0 mm
23:42 74.3 °F /  23.5 °C 61.3 °F /  16.3 °C 30 in /  1016.8 hPa WSW 2.3 mph /  3.7 km/h 2.3 mph /  3.7 km/h 64 % 0 in /  0.0 mm
23:47 74.1 °F /  23.4 °C 61.2 °F /  16.2 °C 30 in /  1016.8 hPa SW 3.5 mph /  5.6 km/h 3.5 mph /  5.6 km/h 64 % 0 in /  0.0 mm
23:50 71.4 °F /  21.9 °C 61.9 °F /  16.6 °C 30 in /  1016.8 hPa Calm   1 mph /  1.6 km/h 72 % 0 in /  0.0 mm
23:52 74.1 °F /  23.4 °C 61.2 °F /  16.2 °C 30.1 in /  1017.8 hPa SW 2.3 mph /  3.7 km/h 2.3 mph /  3.7 km/h 64 % 0 in /  0.0 mm
23:57 73.9 °F /  23.3 °C 61 °F /  16.1 °C 30.1 in /  1017.8 hPa SW 3.3 mph /  5.3 km/h 3.3 mph /  5.3 km/h 64 % 0 in /  0.0 mm
Meteo Sesrovires
Elogis d' Weather Underground - 3 mb

Guio original per  Jim McMurry - jmcmurry@mwt.net Adaptat per a la plantilla per  Wim van der Kuil - Leuven-Template.eu

Trobareu la nostra informacio del temps tambe a:

Weather Underground

AWEKAS